Time;durP1;ratioP1;P1;durP2;ratioP2;P2;SDS_P1;SDS_P2;PMS_P1;PMS_P2;Temp;Humidity;BMP_temperature;BMP_pressure;BME280_temperature;BME280_humidity;BME280_pressure;Samples;Min_cycle;Max_cycle;Signal;HPM_P1;HPM_P2
2023/05/16 00:02:20;;;;;;;21.17;2.88;;;10.30;99.90;;;;;;5077702;28;20187;-85
2023/05/16 00:04:46;;;;;;;10.98;2.42;;;10.30;99.90;;;;;;5076355;28;20178;-85
2023/05/16 00:07:13;;;;;;;17.98;2.70;;;10.30;99.90;;;;;;5096185;28;20210;-84
2023/05/16 00:09:39;;;;;;;18.65;2.80;;;10.20;99.90;;;;;;5062300;28;20584;-85
2023/05/16 00:12:05;;;;;;;15.70;2.97;;;10.20;99.90;;;;;;5094546;28;20186;-86
2023/05/16 00:14:30;;;;;;;23.42;2.97;;;10.20;99.90;;;;;;5047932;28;20264;-85
2023/05/16 00:16:57;;;;;;;15.93;2.92;;;10.20;99.90;;;;;;5084169;28;20674;-86
2023/05/16 00:19:25;;;;;;;21.27;2.38;;;10.20;99.90;;;;;;5083185;28;20342;-85
2023/05/16 00:21:51;;;;;;;16.15;2.47;;;10.20;99.90;;;;;;5093176;28;20627;-85
2023/05/16 00:24:17;;;;;;;12.45;2.17;;;10.10;99.90;;;;;;5090247;28;20268;-85
2023/05/16 00:26:43;;;;;;;8.13;2.05;;;10.10;99.90;;;;;;5073016;28;20229;-84
2023/05/16 00:29:09;;;;;;;11.48;2.22;;;10.10;99.90;;;;;;5092051;28;20186;-85
2023/05/16 00:31:35;;;;;;;12.65;2.40;;;10.00;99.90;;;;;;5074604;28;20230;-85
2023/05/16 00:34:00;;;;;;;16.55;2.88;;;10.00;99.90;;;;;;5073185;28;20276;-86
2023/05/16 00:36:27;;;;;;;18.15;2.53;;;10.00;99.90;;;;;;5037379;28;20228;-82
2023/05/16 00:38:53;;;;;;;17.50;2.78;;;10.00;99.90;;;;;;5044978;28;20183;-85
2023/05/16 00:41:20;;;;;;;22.67;2.60;;;9.90;99.90;;;;;;5090438;28;20186;-85
2023/05/16 00:43:46;;;;;;;20.45;2.80;;;9.90;99.90;;;;;;5057087;28;20227;-84
2023/05/16 00:46:12;;;;;;;22.45;2.90;;;9.90;99.90;;;;;;5032603;28;20239;-85
2023/05/16 00:48:38;;;;;;;18.73;2.60;;;9.90;99.90;;;;;;5053287;28;20186;-85
2023/05/16 00:51:08;;;;;;;16.63;2.20;;;9.90;99.90;;;;;;5088839;28;20571;-85
2023/05/16 00:53:35;;;;;;;14.57;2.95;;;9.90;99.90;;;;;;5050711;28;20197;-85
2023/05/16 00:56:02;;;;;;;18.98;2.60;;;9.90;99.90;;;;;;5056521;28;20186;-86
2023/05/16 00:58:31;;;;;;;16.65;2.28;;;9.90;99.90;;;;;;5065775;28;20635;-86
2023/05/16 01:00:57;;;;;;;13.68;2.33;;;9.90;99.90;;;;;;5093098;28;20599;-87
2023/05/16 01:03:24;;;;;;;16.45;2.67;;;9.80;99.90;;;;;;5091882;28;20189;-86
2023/05/16 01:05:50;;;;;;;14.32;2.78;;;9.90;99.90;;;;;;5047349;28;20214;-84
2023/05/16 01:08:16;;;;;;;20.00;2.63;;;9.90;99.90;;;;;;5075200;28;20221;-86
2023/05/16 01:11:15;;;;;;;18.45;2.33;;;9.90;99.90;;;;;;5041374;28;20259;-85
2023/05/16 01:14:21;;;;;;;15.52;2.28;;;9.90;99.90;;;;;;5082617;28;20562;-84
2023/05/16 01:16:50;;;;;;;12.27;2.13;;;9.90;99.90;;;;;;5065437;28;20197;-85
2023/05/16 01:20:03;;;;;;;15.45;2.53;;;9.90;99.90;;;;;;5071649;28;20178;-84
2023/05/16 01:22:47;;;;;;;17.38;1.90;;;9.90;99.90;;;;;;5029228;28;20236;-85
2023/05/16 01:25:32;;;;;;;11.30;2.15;;;9.80;99.90;;;;;;5088050;28;20182;-85
2023/05/16 01:28:00;;;;;;;12.73;2.50;;;9.80;99.90;;;;;;5053963;28;20190;-84
2023/05/16 01:30:26;;;;;;;16.00;2.78;;;9.80;99.90;;;;;;5089400;28;20189;-84
2023/05/16 01:32:52;;;;;;;20.90;2.50;;;9.80;99.90;;;;;;5051003;28;20226;-84
2023/05/16 01:35:18;;;;;;;14.93;2.50;;;9.70;99.90;;;;;;5041016;28;20236;-86
2023/05/16 01:38:17;;;;;;;15.40;2.30;;;9.70;99.90;;;;;;5062606;28;20228;-86
2023/05/16 01:40:58;;;;;;;23.27;2.00;;;9.70;99.90;;;;;;5058736;28;20194;-84
2023/05/16 01:43:48;;;;;;;18.60;2.60;;;9.60;99.90;;;;;;5066617;28;20209;-85
2023/05/16 01:46:19;;;;;;;17.38;3.08;;;9.60;99.90;;;;;;5071526;28;20350;-85
2023/05/16 01:49:16;;;;;;;14.18;2.55;;;9.60;99.90;;;;;;5060758;28;20227;-85
2023/05/16 01:51:50;;;;;;;15.90;2.58;;;9.50;99.90;;;;;;5078368;28;20228;-85
2023/05/16 01:54:18;;;;;;;22.25;3.40;;;9.50;99.90;;;;;;5068569;28;20170;-85
2023/05/16 01:56:53;;;;;;;16.90;2.53;;;9.50;99.90;;;;;;5087847;28;20190;-85
2023/05/16 01:59:23;;;;;;;12.27;2.30;;;9.40;99.90;;;;;;5054228;28;20188;-85
2023/05/16 02:01:54;;;;;;;22.33;2.78;;;9.40;99.90;;;;;;5081246;28;20184;-86
2023/05/16 02:04:20;;;;;;;18.50;2.47;;;9.40;99.90;;;;;;5043020;28;20206;-85
2023/05/16 02:06:46;;;;;;;14.30;2.65;;;9.40;99.90;;;;;;5066455;28;20274;-85
2023/05/16 02:09:15;;;;;;;18.40;2.38;;;9.30;99.90;;;;;;5024262;28;20524;-85
2023/05/16 02:11:42;;;;;;;20.58;2.47;;;9.30;99.90;;;;;;5062947;28;20235;-84
2023/05/16 02:14:08;;;;;;;10.13;2.22;;;9.40;99.90;;;;;;5063194;28;20178;-85
2023/05/16 02:16:35;;;;;;;15.98;2.75;;;9.30;99.90;;;;;;5071864;28;20201;-85
2023/05/16 02:19:01;;;;;;;11.82;2.05;;;9.30;99.90;;;;;;5068885;28;20718;-85
2023/05/16 02:21:27;;;;;;;23.50;3.17;;;9.30;99.90;;;;;;5069849;28;20200;-85
2023/05/16 02:23:52;;;;;;;19.95;2.90;;;9.30;99.90;;;;;;5084518;28;20184;-83
2023/05/16 02:26:18;;;;;;;15.43;2.70;;;9.30;99.90;;;;;;5075601;28;20263;-85
2023/05/16 02:28:44;;;;;;;20.05;2.60;;;9.30;99.90;;;;;;5054791;28;20188;-85
2023/05/16 02:31:10;;;;;;;11.93;2.58;;;9.40;99.90;;;;;;5052362;28;20206;-85
2023/05/16 02:33:36;;;;;;;16.48;2.40;;;9.30;99.90;;;;;;5071410;28;20226;-85
2023/05/16 02:36:02;;;;;;;15.15;2.22;;;9.30;99.90;;;;;;5065488;28;20191;-84
2023/05/16 02:38:28;;;;;;;16.48;2.65;;;9.30;99.90;;;;;;5061735;28;20271;-85
2023/05/16 02:40:54;;;;;;;11.35;2.00;;;9.30;99.90;;;;;;5063598;28;20186;-85
2023/05/16 02:43:20;;;;;;;21.63;2.90;;;9.30;99.90;;;;;;5066463;28;20183;-85
2023/05/16 02:45:46;;;;;;;22.83;3.10;;;9.30;99.90;;;;;;5069520;28;20277;-85
2023/05/16 02:48:12;;;;;;;12.63;2.42;;;9.30;99.90;;;;;;5084661;28;20612;-86
2023/05/16 02:50:39;;;;;;;17.85;2.80;;;9.30;99.90;;;;;;5066003;28;20183;-85
2023/05/16 02:53:05;;;;;;;17.10;3.05;;;9.30;99.90;;;;;;5034832;28;20186;-85
2023/05/16 02:55:31;;;;;;;14.23;2.60;;;9.30;99.90;;;;;;5038491;28;20183;-85
2023/05/16 02:57:56;;;;;;;18.92;2.75;;;9.30;99.90;;;;;;5070244;28;20186;-86
2023/05/16 03:00:23;;;;;;;13.93;2.60;;;9.30;99.90;;;;;;5068200;28;20202;-85
2023/05/16 03:02:48;;;;;;;17.63;3.35;;;9.20;99.90;;;;;;5058645;28;20191;-86
2023/05/16 03:05:14;;;;;;;13.57;2.20;;;9.20;99.90;;;;;;5035774;28;20717;-85
2023/05/16 03:07:40;;;;;;;12.75;2.53;;;9.20;99.90;;;;;;5061309;28;20566;-85
2023/05/16 03:10:06;;;;;;;15.00;2.50;;;9.20;99.90;;;;;;5061994;28;20182;-86
2023/05/16 03:12:32;;;;;;;19.25;2.53;;;9.20;99.90;;;;;;5043289;28;20668;-85
2023/05/16 03:14:58;;;;;;;21.65;2.65;;;9.20;99.90;;;;;;5072640;28;20187;-86
2023/05/16 03:17:24;;;;;;;14.77;3.08;;;9.20;99.90;;;;;;5065618;28;20199;-86
2023/05/16 03:19:50;;;;;;;20.50;2.90;;;9.20;99.90;;;;;;5053666;28;20237;-86
2023/05/16 03:22:16;;;;;;;15.98;2.78;;;9.20;99.90;;;;;;5038795;28;20188;-85
2023/05/16 03:24:42;;;;;;;18.70;2.63;;;9.20;99.90;;;;;;5053332;28;20240;-85
2023/05/16 03:27:10;;;;;;;14.73;2.70;;;9.20;99.90;;;;;;5057233;28;20215;-85
2023/05/16 03:29:36;;;;;;;20.48;2.90;;;9.20;99.90;;;;;;5044106;28;20228;-85
2023/05/16 03:32:02;;;;;;;14.63;2.20;;;9.20;99.90;;;;;;5051357;28;21145;-85
2023/05/16 03:34:28;;;;;;;17.98;2.50;;;9.20;99.90;;;;;;5074333;28;20178;-85
2023/05/16 03:36:54;;;;;;;21.92;2.50;;;9.20;99.90;;;;;;5057888;28;20235;-85
2023/05/16 03:39:20;;;;;;;17.80;2.60;;;9.10;99.90;;;;;;5090426;28;20186;-83
2023/05/16 03:41:46;;;;;;;21.50;3.30;;;9.20;99.90;;;;;;5070561;28;20181;-88
2023/05/16 03:44:12;;;;;;;15.75;2.70;;;9.20;99.90;;;;;;5072940;28;20728;-86
2023/05/16 03:46:37;;;;;;;15.65;2.60;;;9.10;99.90;;;;;;5074713;28;20313;-86
2023/05/16 03:49:03;;;;;;;15.38;2.83;;;9.10;99.90;;;;;;5072883;28;20178;-86
2023/05/16 03:51:29;;;;;;;15.02;2.25;;;9.10;99.90;;;;;;5094010;28;20281;-86
2023/05/16 03:53:55;;;;;;;14.35;2.55;;;9.10;99.90;;;;;;5096776;28;20183;-86
2023/05/16 03:56:21;;;;;;;16.77;2.50;;;9.10;99.90;;;;;;5080909;28;20205;-88
2023/05/16 03:58:47;;;;;;;19.00;2.80;;;9.10;99.90;;;;;;5082335;28;20275;-89
2023/05/16 04:01:13;;;;;;;12.90;2.58;;;9.10;99.90;;;;;;5096013;28;20190;-87
2023/05/16 04:03:39;;;;;;;12.55;2.30;;;9.10;99.90;;;;;;5090865;28;20287;-86
2023/05/16 04:06:06;;;;;;;13.90;2.60;;;9.10;99.90;;;;;;5093361;28;20694;-86
2023/05/16 04:08:32;;;;;;;16.42;2.22;;;9.10;99.90;;;;;;5096177;28;20174;-85
2023/05/16 04:11:01;;;;;;;19.58;2.47;;;9.10;99.90;;;;;;5077858;28;20603;-87
2023/05/16 04:13:26;;;;;;;16.27;2.22;;;9.10;99.90;;;;;;5093502;28;20178;-84
2023/05/16 04:15:52;;;;;;;17.10;2.60;;;9.10;99.90;;;;;;5091492;28;20197;-85
2023/05/16 04:18:18;;;;;;;14.45;2.17;;;9.10;99.90;;;;;;5090612;28;20186;-82
2023/05/16 04:20:46;;;;;;;17.77;2.47;;;9.10;99.90;;;;;;5090870;28;20178;-82
2023/05/16 04:23:12;;;;;;;14.07;2.70;;;9.10;99.90;;;;;;5070464;28;20174;-81
2023/05/16 04:25:38;;;;;;;16.75;2.38;;;9.10;99.90;;;;;;5090414;28;20174;-81
2023/05/16 04:28:04;;;;;;;17.33;2.50;;;9.20;99.90;;;;;;5055088;28;20189;-82
2023/05/16 04:30:30;;;;;;;23.05;2.78;;;9.20;99.90;;;;;;5075383;28;20201;-81
2023/05/16 04:32:58;;;;;;;21.20;2.72;;;9.10;99.90;;;;;;5040634;28;20612;-82
2023/05/16 04:35:25;;;;;;;13.90;2.35;;;9.10;99.90;;;;;;5038052;28;20186;-81
2023/05/16 04:37:51;;;;;;;15.30;2.25;;;9.10;99.90;;;;;;5088112;28;20265;-81
2023/05/16 04:40:16;;;;;;;18.10;2.45;;;9.20;99.90;;;;;;5086871;28;20351;-81
2023/05/16 04:42:42;;;;;;;12.25;2.03;;;9.20;99.90;;;;;;5078332;28;20182;-82
2023/05/16 04:45:13;;;;;;;13.55;2.28;;;9.20;99.90;;;;;;5061264;28;20186;-81
2023/05/16 04:47:39;;;;;;;16.92;2.33;;;9.20;99.90;;;;;;5087927;28;20309;-89
2023/05/16 04:50:07;;;;;;;12.82;2.63;;;9.20;99.90;;;;;;5070059;28;20585;-83
2023/05/16 04:52:33;;;;;;;17.45;2.65;;;9.30;99.90;;;;;;5089641;28;20177;-85
2023/05/16 04:54:59;;;;;;;18.25;2.53;;;9.30;99.90;;;;;;5088598;28;20174;-85
2023/05/16 04:57:26;;;;;;;13.30;2.25;;;9.40;99.90;;;;;;5068493;28;20181;-84
2023/05/16 04:59:52;;;;;;;14.88;2.75;;;9.40;99.90;;;;;;5087500;28;20221;-83
2023/05/16 05:02:18;;;;;;;18.17;2.40;;;9.40;99.90;;;;;;5053434;28;20648;-82
2023/05/16 05:04:43;;;;;;;12.68;2.50;;;9.50;99.90;;;;;;5068428;28;20598;-82
2023/05/16 05:07:09;;;;;;;11.77;2.42;;;9.50;99.90;;;;;;5086809;28;20237;-84
2023/05/16 05:09:35;;;;;;;18.23;2.58;;;9.50;99.90;;;;;;5071646;28;20205;-82
2023/05/16 05:12:01;;;;;;;11.25;2.22;;;9.50;99.90;;;;;;5091462;28;20189;-82
2023/05/16 05:14:26;;;;;;;15.70;2.72;;;9.60;99.90;;;;;;5090111;28;20247;-84
2023/05/16 05:16:52;;;;;;;19.48;2.42;;;9.70;99.90;;;;;;5075955;28;20217;-83
2023/05/16 05:19:18;;;;;;;14.82;2.42;;;9.70;99.90;;;;;;5090774;28;20299;-83
2023/05/16 05:21:44;;;;;;;16.55;2.28;;;9.70;99.90;;;;;;5071153;28;20286;-83
2023/05/16 05:24:10;;;;;;;8.95;1.80;;;9.80;99.90;;;;;;5075719;28;20210;-83
2023/05/16 05:26:36;;;;;;;14.63;2.42;;;9.80;99.90;;;;;;5073601;28;20235;-83
2023/05/16 05:29:01;;;;;;;14.35;2.15;;;9.80;99.90;;;;;;5055980;28;20186;-82
2023/05/16 05:31:27;;;;;;;9.93;2.03;;;9.80;99.90;;;;;;5074916;28;20186;-82
2023/05/16 05:33:53;;;;;;;15.57;2.05;;;9.80;99.90;;;;;;5076709;28;20230;-82
2023/05/16 05:36:19;;;;;;;15.35;2.75;;;9.90;99.90;;;;;;5075465;28;20273;-83
2023/05/16 05:38:45;;;;;;;15.25;2.28;;;9.90;99.90;;;;;;5089640;28;20269;-82
2023/05/16 05:41:11;;;;;;;21.58;3.22;;;9.90;99.90;;;;;;5091439;28;20181;-83
2023/05/16 05:43:37;;;;;;;14.38;2.17;;;10.00;99.90;;;;;;5093959;28;20186;-82
2023/05/16 05:46:03;;;;;;;11.52;2.20;;;10.00;99.90;;;;;;5088909;28;20213;-82
2023/05/16 05:48:28;;;;;;;13.43;1.95;;;10.10;99.90;;;;;;5094319;28;20666;-83
2023/05/16 05:50:55;;;;;;;11.15;2.40;;;10.20;99.90;;;;;;5101018;28;20788;-82
2023/05/16 05:53:20;;;;;;;15.50;2.47;;;10.20;99.90;;;;;;5095140;28;20178;-82
2023/05/16 05:55:46;;;;;;;15.07;2.10;;;10.30;99.90;;;;;;5096456;28;20192;-83
2023/05/16 05:58:12;;;;;;;15.90;2.15;;;10.30;99.90;;;;;;5056861;28;20462;-82
2023/05/16 06:00:38;;;;;;;11.70;1.98;;;10.40;99.90;;;;;;5080501;28;20183;-83
2023/05/16 06:03:03;;;;;;;12.18;2.28;;;10.50;99.90;;;;;;5068104;28;20202;-82
2023/05/16 06:05:29;;;;;;;16.95;2.20;;;10.50;99.90;;;;;;5079138;28;20297;-82
2023/05/16 06:07:55;;;;;;;14.48;2.30;;;10.60;99.90;;;;;;5060280;28;20256;-81
2023/05/16 06:10:21;;;;;;;12.63;2.00;;;10.70;99.90;;;;;;5058394;28;20181;-84
2023/05/16 06:12:47;;;;;;;13.65;2.30;;;10.80;99.90;;;;;;5072501;28;20218;-82
2023/05/16 06:15:12;;;;;;;14.43;2.03;;;10.90;99.90;;;;;;5092633;28;20243;-82
2023/05/16 06:17:38;;;;;;;11.52;2.05;;;10.90;99.90;;;;;;5088589;28;20186;-82
2023/05/16 06:20:05;;;;;;;17.40;2.35;;;11.00;99.90;;;;;;5092698;28;20207;-82
2023/05/16 06:22:30;;;;;;;11.35;2.22;;;11.10;99.90;;;;;;5058110;28;20173;-82
2023/05/16 06:24:56;;;;;;;14.52;3.92;;;11.20;99.90;;;;;;5091110;28;20182;-82
2023/05/16 06:27:22;;;;;;;9.75;2.60;;;11.20;99.90;;;;;;5089760;28;20693;-82
2023/05/16 06:29:48;;;;;;;11.70;2.13;;;11.30;99.90;;;;;;5058251;28;20182;-81
2023/05/16 06:32:14;;;;;;;8.38;1.85;;;11.30;99.90;;;;;;5091645;28;20217;-82
2023/05/16 06:34:39;;;;;;;10.70;1.75;;;11.30;99.90;;;;;;5091336;28;20186;-81
2023/05/16 06:37:05;;;;;;;11.18;2.10;;;11.30;99.90;;;;;;5059841;28;20221;-81
2023/05/16 06:39:31;;;;;;;13.52;1.90;;;11.30;99.90;;;;;;5058423;28;20186;-84
2023/05/16 06:41:57;;;;;;;8.40;1.75;;;11.40;99.90;;;;;;5058438;28;20178;-82
2023/05/16 06:44:23;;;;;;;17.73;2.20;;;11.40;99.90;;;;;;5057540;28;20201;-82
2023/05/16 06:46:48;;;;;;;16.27;2.30;;;11.50;99.90;;;;;;5091678;28;20224;-82
2023/05/16 06:49:14;;;;;;;14.20;2.17;;;11.60;99.90;;;;;;5092115;28;20261;-82
2023/05/16 06:51:40;;;;;;;10.43;1.80;;;11.60;99.90;;;;;;5089593;28;20276;-81
2023/05/16 06:54:06;;;;;;;12.35;2.00;;;11.70;99.90;;;;;;5090019;28;20181;-83
2023/05/16 06:56:32;;;;;;;6.57;1.60;;;11.70;99.90;;;;;;5073447;28;20194;-83
2023/05/16 06:59:00;;;;;;;7.10;1.48;;;11.80;99.90;;;;;;5091398;28;20186;-83
2023/05/16 07:01:26;;;;;;;5.47;2.13;;;11.80;99.90;;;;;;5095232;28;20185;-82
2023/05/16 07:03:52;;;;;;;9.80;2.13;;;11.80;99.90;;;;;;5092673;28;20181;-83
2023/05/16 07:06:18;;;;;;;7.35;1.55;;;11.90;99.90;;;;;;5090804;28;20241;-83
2023/05/16 07:08:43;;;;;;;9.85;1.63;;;12.00;99.90;;;;;;5077071;28;20186;-82
2023/05/16 07:11:10;;;;;;;9.70;1.90;;;12.00;99.90;;;;;;5071310;28;21408;-83
2023/05/16 07:13:36;;;;;;;14.93;2.70;;;12.10;99.90;;;;;;5091518;28;20264;-83
2023/05/16 07:16:02;;;;;;;11.90;2.03;;;12.20;99.90;;;;;;5088497;28;20281;-82
2023/05/16 07:18:28;;;;;;;15.30;2.35;;;12.30;99.90;;;;;;5090062;28;20178;-82
2023/05/16 07:20:54;;;;;;;11.73;2.13;;;12.40;99.90;;;;;;5069562;28;20223;-83
2023/05/16 07:23:19;;;;;;;12.38;1.90;;;12.60;99.90;;;;;;5090783;28;20612;-83
2023/05/16 07:25:45;;;;;;;12.75;2.25;;;12.60;99.90;;;;;;5090988;28;20190;-85
2023/05/16 07:28:11;;;;;;;17.10;2.17;;;12.70;99.90;;;;;;5086534;28;20247;-81
2023/05/16 07:30:37;;;;;;;6.22;1.83;;;12.70;99.90;;;;;;5088586;28;20218;-80
2023/05/16 07:33:02;;;;;;;12.98;2.20;;;12.70;99.90;;;;;;5056449;28;20271;-82
2023/05/16 07:35:28;;;;;;;12.93;2.30;;;12.80;99.90;;;;;;5090034;28;20561;-81
2023/05/16 07:37:54;;;;;;;11.43;2.50;;;12.90;99.90;;;;;;5091742;28;20177;-83
2023/05/16 07:40:24;;;;;;;14.30;2.38;;;13.10;99.90;;;;;;5055721;28;20184;-81
2023/05/16 07:42:50;;;;;;;15.50;2.85;;;13.20;99.90;;;;;;5076533;28;20177;-81
2023/05/16 07:45:16;;;;;;;21.83;2.65;;;13.20;99.90;;;;;;5093859;28;20219;-81
2023/05/16 07:47:42;;;;;;;9.50;2.10;;;13.30;99.90;;;;;;5075728;28;20221;-83
2023/05/16 07:50:08;;;;;;;11.65;2.22;;;13.40;99.90;;;;;;5058037;28;20272;-81
2023/05/16 07:52:35;;;;;;;9.55;1.85;;;13.50;99.90;;;;;;5087190;28;20190;-82
2023/05/16 07:55:01;;;;;;;15.73;2.35;;;13.50;99.90;;;;;;5092251;28;20765;-82
2023/05/16 07:57:27;;;;;;;10.30;1.90;;;13.60;99.90;;;;;;5058957;28;20247;-81
2023/05/16 07:59:54;;;;;;;15.35;2.28;;;13.70;99.90;;;;;;5093485;28;20174;-81
2023/05/16 08:02:21;;;;;;;11.68;2.88;;;13.80;99.90;;;;;;5068094;28;20240;-82
2023/05/16 08:04:49;;;;;;;10.18;1.98;;;13.90;99.90;;;;;;5075413;28;20232;-81
2023/05/16 08:07:14;;;;;;;9.48;1.73;;;14.20;99.90;;;;;;5092004;28;20985;-81
2023/05/16 08:09:40;;;;;;;12.02;2.58;;;14.30;99.90;;;;;;5093321;28;20189;-82
2023/05/16 08:12:06;;;;;;;8.15;2.08;;;14.30;99.90;;;;;;5093434;28;20223;-81
2023/05/16 08:14:32;;;;;;;9.57;1.90;;;14.40;99.90;;;;;;5074465;28;20196;-82
2023/05/16 08:16:59;;;;;;;15.77;3.08;;;14.30;99.90;;;;;;5093406;28;20182;-82
2023/05/16 08:19:25;;;;;;;7.57;1.75;;;14.30;99.90;;;;;;5088036;28;20182;-81
2023/05/16 08:21:51;;;;;;;9.02;1.55;;;14.20;99.90;;;;;;5091974;28;20190;-81
2023/05/16 08:24:17;;;;;;;6.53;1.65;;;14.00;99.90;;;;;;5058463;28;20627;-81
2023/05/16 08:26:43;;;;;;;8.48;1.58;;;13.80;99.90;;;;;;5075251;28;20270;-81
2023/05/16 08:29:09;;;;;;;5.03;1.58;;;13.80;99.90;;;;;;5073873;28;20186;-82
2023/05/16 08:31:36;;;;;;;6.80;1.55;;;13.80;99.90;;;;;;5075098;28;20620;-82
2023/05/16 08:34:05;;;;;;;11.52;1.70;;;13.90;99.90;;;;;;5092643;28;20259;-81
2023/05/16 08:36:33;;;;;;;11.50;1.73;;;14.00;99.90;;;;;;5093092;28;20177;-82
2023/05/16 08:38:59;;;;;;;8.60;1.50;;;14.20;99.90;;;;;;5072582;28;20192;-82
2023/05/16 08:41:25;;;;;;;11.45;1.80;;;14.30;99.90;;;;;;5088703;28;20190;-82
2023/05/16 08:43:51;;;;;;;8.07;1.73;;;14.50;99.90;;;;;;5074440;28;20193;-81
2023/05/16 08:46:21;;;;;;;8.60;1.77;;;14.60;99.90;;;;;;5093128;28;20202;-81
2023/05/16 08:48:51;;;;;;;11.00;2.05;;;14.60;99.90;;;;;;5073836;28;20182;-81
2023/05/16 08:51:19;;;;;;;12.20;2.58;;;14.60;99.90;;;;;;5087476;28;20278;-81
2023/05/16 08:53:52;;;;;;;13.95;2.58;;;14.60;99.90;;;;;;5088413;28;20641;-82
2023/05/16 08:56:21;;;;;;;20.75;2.30;;;14.50;99.90;;;;;;5055336;28;20201;-81
2023/05/16 08:58:47;;;;;;;10.50;2.40;;;14.40;99.90;;;;;;5086959;28;20178;-81
2023/05/16 09:01:14;;;;;;;13.05;2.25;;;14.40;99.90;;;;;;5068241;28;20662;-82
2023/05/16 09:03:41;;;;;;;9.52;2.08;;;14.50;99.90;;;;;;5092188;28;20178;-81
2023/05/16 09:06:07;;;;;;;16.90;2.38;;;14.60;99.90;;;;;;5074324;28;20351;-82
2023/05/16 09:08:33;;;;;;;12.23;1.77;;;14.70;99.90;;;;;;5074013;28;20264;-82
2023/05/16 09:11:00;;;;;;;11.70;2.20;;;14.90;99.90;;;;;;5088354;28;20194;-82
2023/05/16 09:13:29;;;;;;;14.70;2.40;;;15.10;99.90;;;;;;5090219;28;20193;-82
2023/05/16 09:16:13;;;;;;;10.38;2.75;;;15.10;99.90;;;;;;5074640;28;20178;-81
2023/05/16 09:18:39;;;;;;;8.85;1.92;;;15.20;99.90;;;;;;5088918;28;20186;-81
2023/05/16 09:21:06;;;;;;;11.18;1.85;;;15.30;99.90;;;;;;5073896;28;20191;-81
2023/05/16 09:23:33;;;;;;;11.15;2.03;;;15.40;99.90;;;;;;5082374;28;20201;-83
2023/05/16 09:25:59;;;;;;;10.77;1.70;;;15.40;99.90;;;;;;5054655;28;20206;-82
2023/05/16 09:28:25;;;;;;;8.95;1.80;;;15.40;99.90;;;;;;5059811;28;20511;-82
2023/05/16 09:30:58;;;;;;;10.25;1.65;;;15.30;99.90;;;;;;5051643;28;20590;-82
2023/05/16 09:33:27;;;;;;;8.98;1.75;;;15.20;99.90;;;;;;5072092;28;20218;-83
2023/05/16 09:35:57;;;;;;;7.22;1.95;;;15.10;99.90;;;;;;5072295;28;20175;-82
2023/05/16 09:38:25;;;;;;;10.63;1.63;;;14.80;99.90;;;;;;5071268;28;20178;-82
2023/05/16 09:40:50;;;;;;;4.78;1.38;;;14.60;99.90;;;;;;5071445;28;20252;-83
2023/05/16 09:43:17;;;;;;;8.18;1.70;;;14.50;99.90;;;;;;5073599;28;20585;-82
2023/05/16 09:45:47;;;;;;;8.50;1.63;;;14.50;99.90;;;;;;5090387;28;20192;-81
2023/05/16 09:48:14;;;;;;;11.45;1.90;;;14.50;99.90;;;;;;5091927;28;20212;-82
2023/05/16 09:50:58;;;;;;;11.48;2.25;;;14.60;99.90;;;;;;5092779;28;20190;-84
2023/05/16 09:53:26;;;;;;;11.25;1.63;;;14.70;99.90;;;;;;5089966;28;20817;-82
2023/05/16 09:56:02;;;;;;;11.32;1.88;;;14.80;99.90;;;;;;5093805;28;20256;-83
2023/05/16 09:58:30;;;;;;;10.05;1.98;;;14.80;99.90;;;;;;5098013;28;20223;-84
2023/05/16 10:00:57;;;;;;;9.90;1.98;;;14.80;99.90;;;;;;5081162;28;20166;-83
2023/05/16 10:03:23;;;;;;;13.82;2.38;;;14.80;99.90;;;;;;5091300;28;20183;-85
2023/05/16 10:05:49;;;;;;;10.85;2.17;;;14.80;99.90;;;;;;5071927;28;20580;-82
2023/05/16 10:08:15;;;;;;;12.73;2.50;;;14.80;99.90;;;;;;5064566;28;20193;-84
2023/05/16 10:10:41;;;;;;;16.83;2.30;;;15.00;99.90;;;;;;5059861;28;20230;-85
2023/05/16 10:13:09;;;;;;;12.80;2.10;;;15.10;99.90;;;;;;5092679;28;20277;-85
2023/05/16 10:15:37;;;;;;;12.98;2.13;;;15.30;99.90;;;;;;5093716;28;20269;-85
2023/05/16 10:18:04;;;;;;;10.50;1.77;;;15.40;99.90;;;;;;5081679;28;20181;-85
2023/05/16 10:20:30;;;;;;;7.28;1.42;;;15.50;99.90;;;;;;5107176;28;20189;-86
2023/05/16 10:22:57;;;;;;;7.60;1.80;;;15.50;99.90;;;;;;5100845;28;20928;-86
2023/05/16 10:25:25;;;;;;;12.05;1.85;;;15.60;99.90;;;;;;5091479;28;20196;-85
2023/05/16 10:27:51;;;;;;;8.45;1.70;;;15.50;99.90;;;;;;5095962;28;20205;-85
2023/05/16 10:30:18;;;;;;;6.45;1.83;;;15.30;99.90;;;;;;5095526;28;20185;-85
2023/05/16 10:32:46;;;;;;;6.78;1.55;;;15.10;99.90;;;;;;5086346;28;20260;-84
2023/05/16 10:35:12;;;;;;;8.13;1.60;;;15.10;99.90;;;;;;5096036;28;20182;-86
2023/05/16 10:37:39;;;;;;;8.02;1.65;;;15.10;99.90;;;;;;5071454;28;20197;-85
2023/05/16 10:40:06;;;;;;;14.63;2.13;;;15.10;99.90;;;;;;5077820;28;20686;-86
2023/05/16 10:42:32;;;;;;;9.35;1.90;;;15.10;99.90;;;;;;5077842;28;20234;-82
2023/05/16 10:45:18;;;;;;;6.35;1.60;;;15.20;99.90;;;;;;5077648;28;20216;-85
2023/05/16 10:47:57;;;;;;;6.45;1.27;;;15.30;99.90;;;;;;5043539;28;20212;-85
2023/05/16 10:50:50;;;;;;;6.95;1.65;;;15.50;99.90;;;;;;5090548;28;20272;-84
2023/05/16 10:53:20;;;;;;;11.35;2.08;;;15.60;99.70;;;;;;5082036;28;20199;-83
2023/05/16 10:56:01;;;;;;;12.40;2.53;;;15.70;99.50;;;;;;5075995;28;20174;-85
2023/05/16 10:58:39;;;;;;;8.75;1.95;;;15.80;99.00;;;;;;5095342;28;20277;-87
2023/05/16 11:01:14;;;;;;;9.27;1.73;;;15.90;99.00;;;;;;5077048;28;20174;-87
2023/05/16 11:04:09;;;;;;;9.65;2.03;;;15.90;98.40;;;;;;5096230;28;20176;-87
2023/05/16 11:06:40;;;;;;;10.23;1.80;;;16.00;97.50;;;;;;5076416;28;20202;-83
2023/05/16 11:09:09;;;;;;;9.50;1.88;;;16.00;97.60;;;;;;5074095;28;20194;-88
2023/05/16 11:11:49;;;;;;;8.55;1.55;;;16.00;97.20;;;;;;5072113;28;20189;-88
2023/05/16 11:14:31;;;;;;;7.97;1.92;;;16.00;97.00;;;;;;5072672;28;20206;-88
2023/05/16 11:17:05;;;;;;;9.75;2.28;;;16.10;96.70;;;;;;5075810;28;20182;-88
2023/05/16 11:19:48;;;;;;;8.52;1.80;;;16.20;96.30;;;;;;5096188;28;20647;-87
2023/05/16 11:22:21;;;;;;;11.80;2.00;;;16.30;95.80;;;;;;5096120;28;20182;-90
2023/05/16 11:25:07;;;;;;;11.15;1.80;;;16.40;95.60;;;;;;5077261;28;20273;-88
2023/05/16 11:27:44;;;;;;;10.05;2.00;;;16.50;94.60;;;;;;5071331;28;20281;-89
2023/05/16 11:30:09;;;;;;;14.23;2.20;;;16.50;94.20;;;;;;5077592;28;20208;-86
2023/05/16 11:32:37;;;;;;;10.20;1.58;;;16.40;94.30;;;;;;5095268;28;20567;-86
2023/05/16 11:35:04;;;;;;;10.32;1.77;;;16.30;94.80;;;;;;5077609;28;20193;-87
2023/05/16 11:37:30;;;;;;;6.90;1.95;;;16.30;94.50;;;;;;5061432;28;20182;-89
2023/05/16 11:40:03;;;;;;;9.70;2.22;;;16.20;94.40;;;;;;5072932;28;20241;-87
2023/05/16 11:42:32;;;;;;;13.35;2.22;;;16.10;94.60;;;;;;5078380;28;20174;-88
2023/05/16 11:45:05;;;;;;;11.30;2.17;;;16.10;94.90;;;;;;5079085;28;20204;-88
2023/05/16 11:47:32;;;;;;;11.68;2.20;;;15.90;95.40;;;;;;5086003;28;20186;-89
2023/05/16 11:49:58;;;;;;;12.02;1.90;;;16.00;95.70;;;;;;5065830;28;20185;-84
2023/05/16 11:52:25;;;;;;;11.27;1.95;;;16.00;95.80;;;;;;5070504;28;20660;-84
2023/05/16 11:54:50;;;;;;;8.18;1.85;;;16.00;95.60;;;;;;5092383;28;20182;-86
2023/05/16 11:57:17;;;;;;;10.23;2.08;;;16.00;95.60;;;;;;5064666;28;20197;-86
2023/05/16 11:59:42;;;;;;;11.13;2.38;;;16.00;95.80;;;;;;5051372;28;20643;-85
2023/05/16 12:02:09;;;;;;;10.90;2.22;;;16.00;95.80;;;;;;5072531;28;20187;-85
2023/05/16 12:04:37;;;;;;;9.32;2.58;;;15.90;95.80;;;;;;5084555;28;20620;-90
2023/05/16 12:07:04;;;;;;;10.50;2.30;;;15.90;95.60;;;;;;5076109;28;20213;-85
2023/05/16 12:09:30;;;;;;;14.13;3.30;;;15.90;95.50;;;;;;5076381;28;20643;-89
2023/05/16 12:11:56;;;;;;;10.35;2.50;;;15.80;95.50;;;;;;5087847;28;20185;-85
2023/05/16 12:14:22;;;;;;;8.68;2.60;;;15.70;95.80;;;;;;5099617;28;20194;-87
2023/05/16 12:16:52;;;;;;;12.50;3.05;;;15.70;96.00;;;;;;5074019;28;20231;-89
2023/05/16 12:19:18;;;;;;;9.70;2.75;;;15.70;96.00;;;;;;5056618;28;20607;-88
2023/05/16 12:21:44;;;;;;;9.70;2.67;;;15.70;95.70;;;;;;5040301;28;20175;-93
2023/05/16 12:24:14;;;;;;;9.93;2.63;;;15.60;95.60;;;;;;5039740;28;20236;-85
2023/05/16 12:26:43;;;;;;;12.93;2.95;;;15.60;95.50;;;;;;5055835;28;20312;-86
2023/05/16 12:29:10;;;;;;;10.88;3.20;;;15.60;95.50;;;;;;5048838;28;20221;-86
2023/05/16 12:31:39;;;;;;;9.98;2.60;;;15.50;95.70;;;;;;5088600;28;20293;-87
2023/05/16 12:34:14;;;;;;;9.80;2.78;;;15.50;95.90;;;;;;5074421;28;20764;-86
2023/05/16 12:36:41;;;;;;;9.98;2.85;;;15.50;96.10;;;;;;5080224;28;20243;-86
2023/05/16 12:39:11;;;;;;;14.50;2.95;;;15.50;96.30;;;;;;5075666;28;20193;-86
2023/05/16 12:41:43;;;;;;;11.45;3.75;;;15.50;96.90;;;;;;5075411;28;20178;-86
2023/05/16 12:44:15;;;;;;;11.73;3.15;;;15.50;97.30;;;;;;5055312;28;20215;-87
2023/05/16 12:46:51;;;;;;;11.68;3.55;;;15.40;97.90;;;;;;5087518;28;20197;-86
2023/05/16 12:49:21;;;;;;;9.07;3.20;;;15.30;98.90;;;;;;5075663;28;20280;-87